createdAt,value
2023-11-17T00:00:23.316Z,95.28
2023-11-17T00:04:35.746Z,97.34
2023-11-17T00:08:48.161Z,97.12
2023-11-17T00:13:00.454Z,97.48
2023-11-17T00:17:12.872Z,92.76
2023-11-17T00:21:25.247Z,96.89
2023-11-17T00:25:37.612Z,98.30
2023-11-17T00:29:50.170Z,97.91
2023-11-17T00:34:08.117Z,95.92
2023-11-17T00:38:20.484Z,94.34
2023-11-17T00:42:33.080Z,100.00
2023-11-17T00:46:47.083Z,100.00
2023-11-17T00:51:00.756Z,100.00
2023-11-17T00:55:15.248Z,100.00
2023-11-17T00:59:27.778Z,100.00
2023-11-17T01:03:40.318Z,100.00
2023-11-17T01:07:53.818Z,100.00
2023-11-17T01:12:07.546Z,97.81
2023-11-17T01:16:22.448Z,95.86
2023-11-17T01:20:42.475Z,100.00
2023-11-17T01:24:55.137Z,100.00
2023-11-17T01:29:07.500Z,100.00
2023-11-17T01:33:20.791Z,100.00
2023-11-17T01:37:33.520Z,100.00
2023-11-17T01:41:45.968Z,100.00
2023-11-17T01:45:59.077Z,100.00
2023-11-17T01:50:16.607Z,100.00
2023-11-17T01:54:33.830Z,100.00
2023-11-17T01:58:46.915Z,100.00
2023-11-17T02:03:01.896Z,100.00
2023-11-17T02:07:24.804Z,100.00
2023-11-17T02:12:00.999Z,100.00
2023-11-17T02:16:19.084Z,100.00
2023-11-17T02:20:36.213Z,100.00
2023-11-17T02:24:58.582Z,100.00
2023-11-17T02:29:30.361Z,100.00
2023-11-17T02:33:47.345Z,100.00
2023-11-17T02:38:05.537Z,100.00
2023-11-17T02:42:25.723Z,100.00
2023-11-17T02:46:45.928Z,100.00
2023-11-17T02:51:17.002Z,100.00
2023-11-17T02:55:37.238Z,100.00
2023-11-17T02:59:50.380Z,100.00
2023-11-17T03:04:02.707Z,100.00
2023-11-17T03:08:15.152Z,99.50
2023-11-17T03:12:28.819Z,98.83
2023-11-17T03:16:41.399Z,98.45
2023-11-17T03:21:03.573Z,96.86
2023-11-17T03:25:17.349Z,96.60
2023-11-17T03:29:31.119Z,95.07
2023-11-17T03:33:46.592Z,94.60
2023-11-17T03:37:59.547Z,96.22
2023-11-17T03:42:15.831Z,94.86
2023-11-17T03:46:28.236Z,96.00
2023-11-17T03:50:42.963Z,96.37
2023-11-17T03:54:57.925Z,95.03
2023-11-17T03:59:14.727Z,96.36
2023-11-17T04:03:27.101Z,96.71
2023-11-17T04:07:39.490Z,96.58
2023-11-17T04:11:53.847Z,99.47
2023-11-17T04:16:07.854Z,100.00
2023-11-17T04:20:20.739Z,100.00
2023-11-17T04:24:33.586Z,100.00
2023-11-17T04:28:45.869Z,100.00
2023-11-17T04:32:59.991Z,100.00
2023-11-17T04:37:13.499Z,100.00
2023-11-17T04:41:25.903Z,100.00
2023-11-17T04:45:44.179Z,100.00
2023-11-17T04:49:56.606Z,100.00
2023-11-17T04:54:08.852Z,99.67
2023-11-17T04:58:21.251Z,98.87
2023-11-17T05:02:34.869Z,96.76
2023-11-17T05:06:47.955Z,91.53
2023-11-17T05:11:02.138Z,92.39
2023-11-17T05:15:15.000Z,88.11
2023-11-17T05:19:28.435Z,83.30
2023-11-17T05:23:40.671Z,78.58
2023-11-17T05:27:53.272Z,82.54
2023-11-17T05:32:06.125Z,84.79
2023-11-17T05:36:18.693Z,81.51
2023-11-17T05:40:35.224Z,79.05
2023-11-17T05:44:47.678Z,79.51
2023-11-17T05:48:59.988Z,75.01
2023-11-17T05:53:12.426Z,71.12
2023-11-17T05:57:24.735Z,69.27
2023-11-17T06:01:37.005Z,70.96
2023-11-17T06:05:49.405Z,69.01
2023-11-17T06:10:01.837Z,68.39
2023-11-17T06:14:14.262Z,79.26
2023-11-17T06:18:27.121Z,80.32
2023-11-17T06:22:39.495Z,78.42
2023-11-17T06:26:51.812Z,76.23
2023-11-17T06:31:04.406Z,70.29
2023-11-17T06:35:17.740Z,72.54
2023-11-17T06:39:30.860Z,72.42
2023-11-17T06:43:43.438Z,68.38
2023-11-17T06:47:55.858Z,66.73
2023-11-17T06:52:09.766Z,68.12
2023-11-17T06:56:22.346Z,67.12
2023-11-17T07:00:34.626Z,67.58
2023-11-17T07:04:48.635Z,68.00
2023-11-17T07:09:03.254Z,69.07
2023-11-17T07:13:16.836Z,69.09
2023-11-17T07:17:29.262Z,69.89
2023-11-17T07:21:42.168Z,70.88
2023-11-17T07:25:56.628Z,72.03
2023-11-17T07:30:14.150Z,71.28
2023-11-17T07:34:26.620Z,74.39
2023-11-17T07:38:39.485Z,74.43
2023-11-17T07:42:51.806Z,71.66
2023-11-17T07:47:05.896Z,71.45
2023-11-17T07:51:18.607Z,72.22
2023-11-17T07:55:33.413Z,72.89
2023-11-17T07:59:46.348Z,75.75
2023-11-17T08:04:00.329Z,75.82
2023-11-17T08:08:15.317Z,74.91
2023-11-17T08:12:28.256Z,75.92
2023-11-17T08:16:40.671Z,75.81
2023-11-17T08:20:53.661Z,75.73
2023-11-17T08:25:08.128Z,77.91
2023-11-17T08:29:23.019Z,84.58
2023-11-17T08:33:36.453Z,93.44
2023-11-17T08:37:48.930Z,100.00
2023-11-17T08:42:02.400Z,100.00
2023-11-17T08:46:15.268Z,100.00
2023-11-17T08:50:27.637Z,100.00
2023-11-17T08:54:39.962Z,100.00
2023-11-17T08:58:52.363Z,100.00
2023-11-17T09:03:06.521Z,100.00
2023-11-17T09:07:19.044Z,100.00
2023-11-17T09:11:34.487Z,100.00
2023-11-17T09:15:47.157Z,100.00
2023-11-17T09:20:01.611Z,100.00
2023-11-17T09:24:14.099Z,100.00
2023-11-17T09:28:26.457Z,100.00
2023-11-17T09:32:38.804Z,100.00
2023-11-17T09:36:53.298Z,100.00
2023-11-17T09:41:06.248Z,100.00
2023-11-17T09:45:23.591Z,100.00
2023-11-17T09:49:40.039Z,100.00
2023-11-17T09:53:55.793Z,100.00
2023-11-17T09:58:09.142Z,100.00
2023-11-17T10:02:22.669Z,100.00
2023-11-17T10:06:35.807Z,100.00
2023-11-17T10:10:49.532Z,100.00
2023-11-17T10:15:07.731Z,100.00
2023-11-17T10:19:20.963Z,100.00
2023-11-17T10:23:34.443Z,100.00
2023-11-17T10:27:51.233Z,100.00
2023-11-17T10:32:23.039Z,100.00
2023-11-17T10:37:00.706Z,100.00
2023-11-17T10:41:23.140Z,100.00
2023-11-17T10:45:38.087Z,100.00
2023-11-17T10:50:09.178Z,100.00
2023-11-17T10:54:21.653Z,100.00
2023-11-17T10:58:34.341Z,100.00
2023-11-17T11:02:48.959Z,100.00
2023-11-17T11:07:03.177Z,100.00
2023-11-17T11:11:22.324Z,100.00
2023-11-17T11:15:35.621Z,100.00
2023-11-17T11:19:58.489Z,100.00
2023-11-17T11:24:33.415Z,100.00
2023-11-17T11:28:49.916Z,100.00
2023-11-17T11:33:02.624Z,100.00
2023-11-17T11:37:15.002Z,100.00
2023-11-17T11:41:28.478Z,100.00
2023-11-17T11:45:42.706Z,100.00
2023-11-17T11:49:58.688Z,100.00
2023-11-17T11:54:11.778Z,100.00
2023-11-17T11:58:24.424Z,100.00
2023-11-17T12:02:36.729Z,100.00
2023-11-17T12:06:51.968Z,100.00
2023-11-17T12:11:14.828Z,100.00
2023-11-17T12:15:30.240Z,100.00
2023-11-17T12:19:42.685Z,100.00
2023-11-17T12:24:07.957Z,100.00
2023-11-17T12:28:21.249Z,100.00
2023-11-17T12:32:34.945Z,100.00
2023-11-17T12:36:47.834Z,100.00
2023-11-17T12:41:03.926Z,100.00
2023-11-17T12:45:17.631Z,100.00
2023-11-17T12:49:30.104Z,100.00
2023-11-17T12:53:51.296Z,100.00
2023-11-17T12:58:04.600Z,100.00
2023-11-17T13:02:18.157Z,100.00
2023-11-17T13:06:32.543Z,100.00
2023-11-17T13:10:47.747Z,100.00
2023-11-17T13:15:00.211Z,100.00
2023-11-17T13:19:15.772Z,100.00
2023-11-17T13:23:29.104Z,100.00
2023-11-17T13:27:44.580Z,100.00
2023-11-17T13:32:02.346Z,100.00
2023-11-17T13:36:15.180Z,100.00
2023-11-17T13:40:35.658Z,100.00
2023-11-17T13:44:48.531Z,100.00
2023-11-17T13:49:14.118Z,100.00
2023-11-17T13:53:29.302Z,100.00
2023-11-17T13:57:42.397Z,100.00
2023-11-17T14:01:59.256Z,100.00
2023-11-17T14:06:12.066Z,100.00
2023-11-17T14:10:24.665Z,100.00
2023-11-17T14:14:38.459Z,100.00
2023-11-17T14:18:52.149Z,100.00
2023-11-17T14:23:09.364Z,100.00
2023-11-17T14:27:21.795Z,100.00
2023-11-17T14:31:36.533Z,100.00
2023-11-17T14:35:49.147Z,100.00
2023-11-17T14:40:01.732Z,100.00
2023-11-17T14:44:14.242Z,100.00
2023-11-17T14:48:26.938Z,100.00
2023-11-17T14:52:39.445Z,100.00
2023-11-17T14:56:52.107Z,100.00
2023-11-17T15:01:06.902Z,100.00
2023-11-17T15:05:22.622Z,100.00
2023-11-17T15:09:35.318Z,100.00
2023-11-17T15:13:48.245Z,100.00
2023-11-17T15:18:09.952Z,100.00
2023-11-17T15:22:22.389Z,100.00
2023-11-17T15:26:35.897Z,100.00
2023-11-17T15:30:55.729Z,100.00
2023-11-17T15:35:12.884Z,100.00
2023-11-17T15:39:28.877Z,100.00
2023-11-17T15:43:44.793Z,100.00
2023-11-17T15:47:58.340Z,100.00
2023-11-17T15:52:12.548Z,100.00
2023-11-17T15:56:25.694Z,100.00
2023-11-17T16:00:39.852Z,100.00
2023-11-17T16:04:52.316Z,100.00
2023-11-17T16:09:11.916Z,100.00
2023-11-17T16:13:25.048Z,100.00
2023-11-17T16:17:37.967Z,100.00
2023-11-17T16:21:50.398Z,100.00
2023-11-17T16:26:02.943Z,100.00
2023-11-17T16:30:18.813Z,100.00
2023-11-17T16:34:31.198Z,100.00
2023-11-17T16:38:44.538Z,100.00
2023-11-17T16:42:59.878Z,100.00
2023-11-17T16:47:13.277Z,100.00
2023-11-17T16:51:25.800Z,100.00
2023-11-17T16:55:41.650Z,100.00
2023-11-17T16:59:54.155Z,100.00
2023-11-17T17:04:07.515Z,100.00
2023-11-17T17:08:27.528Z,100.00
2023-11-17T17:12:40.955Z,100.00
2023-11-17T17:16:54.502Z,100.00
2023-11-17T17:21:08.199Z,100.00
2023-11-17T17:25:21.298Z,100.00
2023-11-17T17:29:33.673Z,100.00
2023-11-17T17:33:46.132Z,100.00
2023-11-17T17:38:00.423Z,100.00
2023-11-17T17:42:17.371Z,100.00
2023-11-17T17:46:29.833Z,100.00
2023-11-17T17:50:42.661Z,100.00
2023-11-17T17:54:55.163Z,100.00
2023-11-17T17:59:07.601Z,100.00
2023-11-17T18:03:21.257Z,100.00
2023-11-17T18:07:34.412Z,100.00
2023-11-17T18:11:50.188Z,100.00
2023-11-17T18:16:03.135Z,100.00
2023-11-17T18:20:20.182Z,100.00
2023-11-17T18:24:33.430Z,100.00
2023-11-17T18:28:49.057Z,100.00
2023-11-17T18:33:01.659Z,100.00
2023-11-17T18:37:14.354Z,100.00
2023-11-17T18:41:27.172Z,100.00
2023-11-17T18:45:39.648Z,100.00
2023-11-17T18:49:52.567Z,100.00
2023-11-17T18:54:07.567Z,100.00
2023-11-17T18:58:21.266Z,100.00
2023-11-17T19:02:33.770Z,100.00
2023-11-17T19:06:49.375Z,100.00
2023-11-17T19:11:02.001Z,100.00
2023-11-17T19:15:15.897Z,100.00
2023-11-17T19:19:28.362Z,100.00
2023-11-17T19:23:40.895Z,100.00
2023-11-17T19:27:53.326Z,100.00
2023-11-17T19:32:08.998Z,100.00
2023-11-17T19:36:22.828Z,100.00
2023-11-17T19:40:36.956Z,100.00
2023-11-17T19:44:51.455Z,100.00
2023-11-17T19:49:07.565Z,100.00
2023-11-17T19:53:20.275Z,100.00
2023-11-17T19:57:34.091Z,100.00
2023-11-17T20:01:46.633Z,100.00
2023-11-17T20:05:59.415Z,100.00
2023-11-17T20:10:15.614Z,100.00
2023-11-17T20:14:27.973Z,100.00
2023-11-17T20:18:40.538Z,100.00
2023-11-17T20:22:55.465Z,100.00
2023-11-17T20:27:08.807Z,100.00
2023-11-17T20:31:24.129Z,100.00
2023-11-17T20:35:39.372Z,100.00
2023-11-17T20:39:52.430Z,100.00
2023-11-17T20:44:07.788Z,100.00
2023-11-17T20:48:20.843Z,100.00
2023-11-17T20:52:33.364Z,100.00
2023-11-17T20:56:47.056Z,100.00
2023-11-17T21:00:59.544Z,100.00
2023-11-17T21:05:13.297Z,100.00
2023-11-17T21:09:30.692Z,100.00
2023-11-17T21:13:45.061Z,100.00
2023-11-17T21:17:57.627Z,100.00
2023-11-17T21:22:10.720Z,100.00
2023-11-17T21:26:26.306Z,100.00
2023-11-17T21:30:39.603Z,100.00
2023-11-17T21:34:59.525Z,100.00
2023-11-17T21:39:12.433Z,100.00
2023-11-17T21:43:25.814Z,100.00
2023-11-17T21:47:38.225Z,100.00
2023-11-17T21:51:50.552Z,100.00
2023-11-17T21:56:02.893Z,100.00
2023-11-17T22:00:18.718Z,100.00
2023-11-17T22:04:31.418Z,100.00
2023-11-17T22:08:43.854Z,100.00
2023-11-17T22:12:57.400Z,100.00
2023-11-17T22:17:09.916Z,100.00
2023-11-17T22:21:22.652Z,100.00
2023-11-17T22:25:35.034Z,100.00
2023-11-17T22:29:47.687Z,100.00
2023-11-17T22:34:00.139Z,100.00
2023-11-17T22:38:14.109Z,100.00
2023-11-17T22:42:27.560Z,100.00
2023-11-17T22:46:40.050Z,100.00
2023-11-17T22:50:52.543Z,100.00
2023-11-17T22:55:05.379Z,100.00
2023-11-17T22:59:19.466Z,100.00
2023-11-17T23:03:32.663Z,100.00
2023-11-17T23:07:45.439Z,100.00
2023-11-17T23:11:59.028Z,100.00
2023-11-17T23:16:11.516Z,100.00
2023-11-17T23:20:24.330Z,100.00
2023-11-17T23:24:37.987Z,100.00
2023-11-17T23:28:51.680Z,100.00
2023-11-17T23:33:09.399Z,100.00
2023-11-17T23:37:22.262Z,100.00
2023-11-17T23:41:34.951Z,100.00
2023-11-17T23:45:47.471Z,100.00
2023-11-17T23:49:59.992Z,100.00
2023-11-17T23:54:15.043Z,100.00
2023-11-17T23:58:27.393Z,100.00
